sensor_id;sensor_type;location;lat;lon;timestamp;pressure;altitude;pressure_sealevel;temperature;humidity
20630;BME280;17386;43.846;25.950;2023-01-26T00:00:31;102475.47;;;2.14;100.00
20630;BME280;17386;43.846;25.950;2023-01-26T00:02:58;102464.03;;;2.12;100.00
20630;BME280;17386;43.846;25.950;2023-01-26T00:05:23;102454.50;;;2.14;100.00
20630;BME280;17386;43.846;25.950;2023-01-26T00:07:50;102463.31;;;2.18;100.00
20630;BME280;17386;43.846;25.950;2023-01-26T00:10:15;102463.97;;;2.09;100.00
20630;BME280;17386;43.846;25.950;2023-01-26T00:12:41;102465.69;;;2.09;100.00
20630;BME280;17386;43.846;25.950;2023-01-26T00:15:07;102464.25;;;2.20;100.00
20630;BME280;17386;43.846;25.950;2023-01-26T00:17:33;102455.75;;;2.30;100.00
20630;BME280;17386;43.846;25.950;2023-01-26T00:19:58;102469.78;;;2.32;100.00
20630;BME280;17386;43.846;25.950;2023-01-26T00:22:25;102462.78;;;2.31;100.00
20630;BME280;17386;43.846;25.950;2023-01-26T00:24:52;102467.22;;;2.34;100.00
20630;BME280;17386;43.846;25.950;2023-01-26T00:27:17;102461.00;;;2.30;100.00
20630;BME280;17386;43.846;25.950;2023-01-26T00:29:42;102459.97;;;2.24;100.00
20630;BME280;17386;43.846;25.950;2023-01-26T00:32:09;102451.28;;;2.26;100.00
20630;BME280;17386;43.846;25.950;2023-01-26T00:34:36;102441.47;;;2.19;100.00
20630;BME280;17386;43.846;25.950;2023-01-26T00:37:02;102443.69;;;2.04;100.00
20630;BME280;17386;43.846;25.950;2023-01-26T00:39:28;102428.63;;;1.95;100.00
20630;BME280;17386;43.846;25.950;2023-01-26T00:41:53;102431.63;;;1.77;100.00
20630;BME280;17386;43.846;25.950;2023-01-26T00:44:31;102430.78;;;1.78;100.00
20630;BME280;17386;43.846;25.950;2023-01-26T00:46:57;102400.75;;;1.66;100.00
20630;BME280;17386;43.846;25.950;2023-01-26T00:49:22;102426.31;;;1.74;100.00
20630;BME280;17386;43.846;25.950;2023-01-26T00:51:47;102425.50;;;1.77;100.00
20630;BME280;17386;43.846;25.950;2023-01-26T00:54:14;102411.69;;;1.82;100.00
20630;BME280;17386;43.846;25.950;2023-01-26T00:56:40;102420.78;;;1.97;100.00
20630;BME280;17386;43.846;25.950;2023-01-26T00:59:05;102420.13;;;2.04;100.00
20630;BME280;17386;43.846;25.950;2023-01-26T01:01:31;102426.25;;;2.04;100.00
20630;BME280;17386;43.846;25.950;2023-01-26T01:03:57;102420.03;;;2.01;100.00
20630;BME280;17386;43.846;25.950;2023-01-26T01:06:24;102413.44;;;1.83;100.00
20630;BME280;17386;43.846;25.950;2023-01-26T01:08:50;102426.72;;;1.89;100.00
20630;BME280;17386;43.846;25.950;2023-01-26T01:11:16;102411.19;;;1.97;100.00
20630;BME280;17386;43.846;25.950;2023-01-26T01:13:41;102413.25;;;2.09;100.00
20630;BME280;17386;43.846;25.950;2023-01-26T01:16:13;102406.47;;;2.17;100.00
20630;BME280;17386;43.846;25.950;2023-01-26T01:18:40;102411.50;;;2.08;100.00
20630;BME280;17386;43.846;25.950;2023-01-26T01:21:06;102408.72;;;2.02;100.00
20630;BME280;17386;43.846;25.950;2023-01-26T01:23:32;102404.47;;;2.07;100.00
20630;BME280;17386;43.846;25.950;2023-01-26T01:25:59;102393.66;;;1.95;100.00
20630;BME280;17386;43.846;25.950;2023-01-26T01:28:25;102360.31;;;1.89;100.00
20630;BME280;17386;43.846;25.950;2023-01-26T01:30:50;102372.06;;;2.05;100.00
20630;BME280;17386;43.846;25.950;2023-01-26T01:33:17;102387.06;;;2.10;100.00
20630;BME280;17386;43.846;25.950;2023-01-26T01:35:54;102377.50;;;2.12;100.00
20630;BME280;17386;43.846;25.950;2023-01-26T01:38:20;102373.94;;;2.09;100.00
20630;BME280;17386;43.846;25.950;2023-01-26T01:40:45;102379.19;;;2.09;100.00
20630;BME280;17386;43.846;25.950;2023-01-26T01:43:11;102380.06;;;2.09;100.00
20630;BME280;17386;43.846;25.950;2023-01-26T01:45:42;102372.13;;;2.06;100.00
20630;BME280;17386;43.846;25.950;2023-01-26T01:48:14;102373.09;;;2.10;100.00
20630;BME280;17386;43.846;25.950;2023-01-26T01:50:42;102353.66;;;2.02;100.00
20630;BME280;17386;43.846;25.950;2023-01-26T01:53:12;102365.97;;;2.06;100.00
20630;BME280;17386;43.846;25.950;2023-01-26T01:55:43;102355.47;;;2.04;100.00
20630;BME280;17386;43.846;25.950;2023-01-26T01:58:09;102357.09;;;1.99;100.00
20630;BME280;17386;43.846;25.950;2023-01-26T02:00:36;102356.09;;;1.94;100.00
20630;BME280;17386;43.846;25.950;2023-01-26T02:03:07;102350.88;;;1.96;100.00
20630;BME280;17386;43.846;25.950;2023-01-26T02:06:27;102356.00;;;1.91;100.00
20630;BME280;17386;43.846;25.950;2023-01-26T02:08:35;102350.47;;;1.79;100.00
20630;BME280;17386;43.846;25.950;2023-01-26T02:11:05;102353.09;;;1.79;100.00
20630;BME280;17386;43.846;25.950;2023-01-26T02:13:32;102345.13;;;1.76;100.00
20630;BME280;17386;43.846;25.950;2023-01-26T02:16:00;102347.38;;;1.62;100.00
20630;BME280;17386;43.846;25.950;2023-01-26T02:18:26;102348.44;;;1.69;100.00
20630;BME280;17386;43.846;25.950;2023-01-26T02:20:54;102350.28;;;1.73;100.00
20630;BME280;17386;43.846;25.950;2023-01-26T02:26:22;102343.78;;;1.91;100.00
20630;BME280;17386;43.846;25.950;2023-01-26T02:28:49;102345.75;;;2.00;100.00
20630;BME280;17386;43.846;25.950;2023-01-26T02:31:16;102354.69;;;2.08;100.00
20630;BME280;17386;43.846;25.950;2023-01-26T02:33:44;102351.84;;;1.99;100.00
20630;BME280;17386;43.846;25.950;2023-01-26T02:36:23;102343.22;;;2.05;100.00
20630;BME280;17386;43.846;25.950;2023-01-26T02:38:54;102343.47;;;2.14;100.00
20630;BME280;17386;43.846;25.950;2023-01-26T02:41:22;102350.91;;;1.97;100.00
20630;BME280;17386;43.846;25.950;2023-01-26T02:44:09;102360.34;;;1.90;100.00
20630;BME280;17386;43.846;25.950;2023-01-26T02:46:34;102353.56;;;1.99;100.00
20630;BME280;17386;43.846;25.950;2023-01-26T02:49:00;102349.28;;;2.02;100.00
20630;BME280;17386;43.846;25.950;2023-01-26T02:51:44;102335.50;;;2.09;100.00
20630;BME280;17386;43.846;25.950;2023-01-26T02:54:10;102339.19;;;2.17;100.00
20630;BME280;17386;43.846;25.950;2023-01-26T02:56:56;102333.75;;;2.10;100.00
20630;BME280;17386;43.846;25.950;2023-01-26T02:59:22;102316.03;;;2.00;100.00
20630;BME280;17386;43.846;25.950;2023-01-26T03:01:50;102312.41;;;1.95;100.00
20630;BME280;17386;43.846;25.950;2023-01-26T03:04:17;102324.81;;;2.02;100.00
20630;BME280;17386;43.846;25.950;2023-01-26T03:06:43;102321.41;;;2.06;100.00
20630;BME280;17386;43.846;25.950;2023-01-26T03:09:10;102315.56;;;2.16;100.00
20630;BME280;17386;43.846;25.950;2023-01-26T03:11:35;102297.16;;;2.13;100.00
20630;BME280;17386;43.846;25.950;2023-01-26T03:14:11;102298.81;;;2.11;100.00
20630;BME280;17386;43.846;25.950;2023-01-26T03:16:39;102300.72;;;2.16;100.00
20630;BME280;17386;43.846;25.950;2023-01-26T03:19:06;102288.41;;;2.14;100.00
20630;BME280;17386;43.846;25.950;2023-01-26T03:21:34;102282.06;;;2.04;100.00
20630;BME280;17386;43.846;25.950;2023-01-26T03:24:18;102275.00;;;2.00;100.00
20630;BME280;17386;43.846;25.950;2023-01-26T03:27:05;102274.91;;;1.97;100.00
20630;BME280;17386;43.846;25.950;2023-01-26T03:29:53;102276.94;;;2.09;100.00
20630;BME280;17386;43.846;25.950;2023-01-26T03:32:20;102268.25;;;2.11;100.00
20630;BME280;17386;43.846;25.950;2023-01-26T03:34:47;102274.53;;;2.19;100.00
20630;BME280;17386;43.846;25.950;2023-01-26T03:37:13;102263.06;;;2.13;100.00
20630;BME280;17386;43.846;25.950;2023-01-26T03:39:39;102258.72;;;2.15;100.00
20630;BME280;17386;43.846;25.950;2023-01-26T03:42:23;102250.88;;;2.15;100.00
20630;BME280;17386;43.846;25.950;2023-01-26T03:45:08;102252.47;;;2.10;100.00
20630;BME280;17386;43.846;25.950;2023-01-26T03:47:52;102255.75;;;2.00;100.00
20630;BME280;17386;43.846;25.950;2023-01-26T03:50:39;102251.47;;;2.05;100.00
20630;BME280;17386;43.846;25.950;2023-01-26T03:53:27;102244.38;;;1.99;100.00
20630;BME280;17386;43.846;25.950;2023-01-26T03:56:13;102240.94;;;2.02;100.00
20630;BME280;17386;43.846;25.950;2023-01-26T03:58:56;102234.63;;;1.94;100.00
20630;BME280;17386;43.846;25.950;2023-01-26T04:01:39;102224.06;;;1.90;100.00
20630;BME280;17386;43.846;25.950;2023-01-26T04:04:07;102230.09;;;1.86;100.00
20630;BME280;17386;43.846;25.950;2023-01-26T04:06:52;102215.09;;;1.79;100.00
20630;BME280;17386;43.846;25.950;2023-01-26T04:09:37;102213.50;;;1.86;100.00
20630;BME280;17386;43.846;25.950;2023-01-26T04:12:07;102205.81;;;1.94;100.00
20630;BME280;17386;43.846;25.950;2023-01-26T04:14:35;102206.88;;;2.02;100.00
20630;BME280;17386;43.846;25.950;2023-01-26T04:17:20;102204.94;;;1.93;100.00
20630;BME280;17386;43.846;25.950;2023-01-26T04:20:06;102208.34;;;1.90;100.00
20630;BME280;17386;43.846;25.950;2023-01-26T04:22:51;102205.88;;;1.97;100.00
20630;BME280;17386;43.846;25.950;2023-01-26T04:25:20;102203.94;;;1.88;100.00
20630;BME280;17386;43.846;25.950;2023-01-26T04:27:47;102210.09;;;1.91;100.00
20630;BME280;17386;43.846;25.950;2023-01-26T04:30:15;102196.75;;;1.79;100.00
20630;BME280;17386;43.846;25.950;2023-01-26T04:32:43;102203.50;;;1.71;100.00
20630;BME280;17386;43.846;25.950;2023-01-26T04:35:10;102199.38;;;1.79;100.00
20630;BME280;17386;43.846;25.950;2023-01-26T04:37:37;102196.78;;;1.81;100.00
20630;BME280;17386;43.846;25.950;2023-01-26T04:40:05;102199.44;;;1.84;100.00
20630;BME280;17386;43.846;25.950;2023-01-26T04:42:30;102204.03;;;1.92;100.00
20630;BME280;17386;43.846;25.950;2023-01-26T04:44:56;102203.94;;;1.88;100.00
20630;BME280;17386;43.846;25.950;2023-01-26T04:47:23;102209.13;;;1.86;100.00
20630;BME280;17386;43.846;25.950;2023-01-26T04:49:48;102201.13;;;1.80;100.00
20630;BME280;17386;43.846;25.950;2023-01-26T04:52:14;102197.63;;;1.80;100.00
20630;BME280;17386;43.846;25.950;2023-01-26T04:54:40;102196.59;;;1.73;100.00
20630;BME280;17386;43.846;25.950;2023-01-26T04:57:06;102198.19;;;1.67;100.00
20630;BME280;17386;43.846;25.950;2023-01-26T04:59:32;102205.09;;;1.64;100.00
20630;BME280;17386;43.846;25.950;2023-01-26T05:01:59;102204.22;;;1.64;100.00
20630;BME280;17386;43.846;25.950;2023-01-26T05:04:25;102198.38;;;1.74;100.00
20630;BME280;17386;43.846;25.950;2023-01-26T05:06:51;102195.75;;;1.74;100.00
20630;BME280;17386;43.846;25.950;2023-01-26T05:09:17;102197.66;;;1.81;100.00
20630;BME280;17386;43.846;25.950;2023-01-26T05:11:43;102197.00;;;1.91;100.00
20630;BME280;17386;43.846;25.950;2023-01-26T05:14:08;102187.47;;;1.94;100.00
20630;BME280;17386;43.846;25.950;2023-01-26T05:16:34;102185.72;;;1.94;100.00
20630;BME280;17386;43.846;25.950;2023-01-26T05:19:00;102187.38;;;1.90;100.00
20630;BME280;17386;43.846;25.950;2023-01-26T05:21:25;102188.94;;;1.82;100.00
20630;BME280;17386;43.846;25.950;2023-01-26T05:23:53;102192.69;;;1.94;100.00
20630;BME280;17386;43.846;25.950;2023-01-26T05:26:19;102192.75;;;1.97;100.00
20630;BME280;17386;43.846;25.950;2023-01-26T05:28:44;102180.50;;;1.96;100.00
20630;BME280;17386;43.846;25.950;2023-01-26T05:31:10;102188.47;;;2.00;100.00
20630;BME280;17386;43.846;25.950;2023-01-26T05:33:36;102181.56;;;2.04;100.00
20630;BME280;17386;43.846;25.950;2023-01-26T05:36:04;102177.00;;;1.95;100.00
20630;BME280;17386;43.846;25.950;2023-01-26T05:38:33;102157.59;;;1.85;100.00
20630;BME280;17386;43.846;25.950;2023-01-26T05:40:58;102175.25;;;1.96;100.00
20630;BME280;17386;43.846;25.950;2023-01-26T05:43:25;102164.78;;;1.96;100.00
20630;BME280;17386;43.846;25.950;2023-01-26T05:45:52;102184.19;;;2.04;100.00
20630;BME280;17386;43.846;25.950;2023-01-26T05:48:19;102179.91;;;2.07;100.00
20630;BME280;17386;43.846;25.950;2023-01-26T05:50:45;102184.19;;;2.04;100.00
20630;BME280;17386;43.846;25.950;2023-01-26T05:53:11;102174.53;;;2.01;100.00
20630;BME280;17386;43.846;25.950;2023-01-26T05:55:37;102171.75;;;1.95;100.00
20630;BME280;17386;43.846;25.950;2023-01-26T05:58:04;102177.16;;;2.01;100.00
20630;BME280;17386;43.846;25.950;2023-01-26T06:00:32;102179.69;;;1.98;100.00
20630;BME280;17386;43.846;25.950;2023-01-26T06:02:59;102181.41;;;1.98;100.00
20630;BME280;17386;43.846;25.950;2023-01-26T06:05:25;102183.13;;;1.96;100.00
20630;BME280;17386;43.846;25.950;2023-01-26T06:07:52;102175.13;;;1.89;100.00
20630;BME280;17386;43.846;25.950;2023-01-26T06:10:17;102177.84;;;1.92;100.00
20630;BME280;17386;43.846;25.950;2023-01-26T06:12:43;102177.84;;;1.92;100.00
20630;BME280;17386;43.846;25.950;2023-01-26T06:15:09;102174.59;;;2.06;100.00
20630;BME280;17386;43.846;25.950;2023-01-26T06:17:36;102175.53;;;2.06;100.00
20630;BME280;17386;43.846;25.950;2023-01-26T06:20:01;102171.97;;;2.06;100.00
20630;BME280;17386;43.846;25.950;2023-01-26T06:22:27;102174.53;;;2.01;100.00
20630;BME280;17386;43.846;25.950;2023-01-26T06:24:52;102170.03;;;1.96;100.00
20630;BME280;17386;43.846;25.950;2023-01-26T06:27:18;102165.75;;;1.99;100.00
20630;BME280;17386;43.846;25.950;2023-01-26T06:29:44;102163.34;;;2.10;100.00
20630;BME280;17386;43.846;25.950;2023-01-26T06:32:11;102165.19;;;2.14;100.00
20630;BME280;17386;43.846;25.950;2023-01-26T06:34:38;102158.97;;;2.09;100.00
20630;BME280;17386;43.846;25.950;2023-01-26T06:37:05;102158.09;;;2.10;100.00
20630;BME280;17386;43.846;25.950;2023-01-26T06:39:31;102149.50;;;2.15;100.00
20630;BME280;17386;43.846;25.950;2023-01-26T06:41:58;102163.66;;;2.25;100.00
20630;BME280;17386;43.846;25.950;2023-01-26T06:44:25;102164.19;;;2.09;100.00
20630;BME280;17386;43.846;25.950;2023-01-26T06:46:52;102162.50;;;2.11;100.00
20630;BME280;17386;43.846;25.950;2023-01-26T06:49:18;102156.53;;;2.18;100.00
20630;BME280;17386;43.846;25.950;2023-01-26T06:52:18;102152.25;;;2.22;100.00
20630;BME280;17386;43.846;25.950;2023-01-26T06:54:47;102146.63;;;2.05;100.00
20630;BME280;17386;43.846;25.950;2023-01-26T06:57:14;102139.78;;;2.11;100.00
20630;BME280;17386;43.846;25.950;2023-01-26T06:59:41;102125.88;;;2.14;100.00
20630;BME280;17386;43.846;25.950;2023-01-26T07:02:27;102126.47;;;2.01;100.00
20630;BME280;17386;43.846;25.950;2023-01-26T07:04:53;102121.19;;;1.99;100.00
20630;BME280;17386;43.846;25.950;2023-01-26T07:07:19;102117.03;;;2.09;100.00
20630;BME280;17386;43.846;25.950;2023-01-26T07:09:46;102103.97;;;2.12;100.00
20630;BME280;17386;43.846;25.950;2023-01-26T07:12:13;102107.28;;;2.03;100.00
20630;BME280;17386;43.846;25.950;2023-01-26T07:14:40;102108.28;;;2.10;100.00
20630;BME280;17386;43.846;25.950;2023-01-26T07:17:06;102088.47;;;2.24;100.00
20630;BME280;17386;43.846;25.950;2023-01-26T07:19:33;102086.16;;;2.39;100.00
20630;BME280;17386;43.846;25.950;2023-01-26T07:22:00;102069.66;;;2.45;100.00
20630;BME280;17386;43.846;25.950;2023-01-26T07:24:26;102067.13;;;2.50;100.00
20630;BME280;17386;43.846;25.950;2023-01-26T07:26:54;102089.25;;;2.18;100.00
20630;BME280;17386;43.846;25.950;2023-01-26T07:29:21;102088.19;;;2.09;100.00
20630;BME280;17386;43.846;25.950;2023-01-26T07:31:48;102071.47;;;2.04;100.00
20630;BME280;17386;43.846;25.950;2023-01-26T07:34:14;102078.59;;;2.11;100.00
20630;BME280;17386;43.846;25.950;2023-01-26T07:36:41;102076.13;;;2.18;100.00
20630;BME280;17386;43.846;25.950;2023-01-26T07:39:07;102073.75;;;2.31;100.00
20630;BME280;17386;43.846;25.950;2023-01-26T07:41:33;102075.72;;;2.41;100.00
20630;BME280;17386;43.846;25.950;2023-01-26T07:43:58;102075.53;;;2.33;100.00
20630;BME280;17386;43.846;25.950;2023-01-26T07:46:25;102071.41;;;2.44;100.00
20630;BME280;17386;43.846;25.950;2023-01-26T07:48:52;102073.19;;;2.47;100.00
20630;BME280;17386;43.846;25.950;2023-01-26T07:51:19;102064.25;;;2.36;100.00
20630;BME280;17386;43.846;25.950;2023-01-26T07:53:45;102054.91;;;2.50;100.00
20630;BME280;17386;43.846;25.950;2023-01-26T07:56:16;102062.69;;;2.47;100.00
20630;BME280;17386;43.846;25.950;2023-01-26T07:58:50;102057.38;;;2.42;100.00
20630;BME280;17386;43.846;25.950;2023-01-26T08:01:17;102052.91;;;2.37;100.00
20630;BME280;17386;43.846;25.950;2023-01-26T08:03:43;102040.00;;;2.47;100.00
20630;BME280;17386;43.846;25.950;2023-01-26T08:06:12;102037.56;;;2.60;100.00
20630;BME280;17386;43.846;25.950;2023-01-26T08:08:37;102042.06;;;2.67;100.00
20630;BME280;17386;43.846;25.950;2023-01-26T08:11:06;102046.25;;;2.56;100.00
20630;BME280;17386;43.846;25.950;2023-01-26T08:13:33;102043.69;;;2.59;100.00
20630;BME280;17386;43.846;25.950;2023-01-26T08:16:02;102053.19;;;2.54;100.00
20630;BME280;17386;43.846;25.950;2023-01-26T08:18:29;102049.88;;;2.62;100.00
20630;BME280;17386;43.846;25.950;2023-01-26T08:20:57;102043.78;;;2.65;100.00
20630;BME280;17386;43.846;25.950;2023-01-26T08:23:23;102046.44;;;2.66;100.00
20630;BME280;17386;43.846;25.950;2023-01-26T08:25:49;102040.31;;;2.67;100.00
20630;BME280;17386;43.846;25.950;2023-01-26T08:28:16;102044.03;;;2.80;100.00
20630;BME280;17386;43.846;25.950;2023-01-26T08:30:43;102058.25;;;2.91;100.00
20630;BME280;17386;43.846;25.950;2023-01-26T08:33:08;102058.22;;;2.90;100.00
20630;BME280;17386;43.846;25.950;2023-01-26T08:35:35;102055.66;;;2.94;100.00
20630;BME280;17386;43.846;25.950;2023-01-26T08:38:01;102066.13;;;2.93;100.00
20630;BME280;17386;43.846;25.950;2023-01-26T08:40:28;102047.50;;;2.78;100.00
20630;BME280;17386;43.846;25.950;2023-01-26T08:42:54;102046.75;;;2.83;100.00
20630;BME280;17386;43.846;25.950;2023-01-26T08:45:19;102045.13;;;2.93;100.00
20630;BME280;17386;43.846;25.950;2023-01-26T08:47:48;102033.81;;;2.95;100.00
20630;BME280;17386;43.846;25.950;2023-01-26T08:50:17;102035.31;;;2.81;100.00
20630;BME280;17386;43.846;25.950;2023-01-26T08:52:44;102024.09;;;2.88;100.00
20630;BME280;17386;43.846;25.950;2023-01-26T08:55:10;102026.78;;;2.94;100.00
20630;BME280;17386;43.846;25.950;2023-01-26T08:57:37;102023.97;;;2.82;100.00
20630;BME280;17386;43.846;25.950;2023-01-26T09:00:04;102013.72;;;2.96;100.00
20630;BME280;17386;43.846;25.950;2023-01-26T09:02:32;102012.06;;;3.03;100.00
20630;BME280;17386;43.846;25.950;2023-01-26T09:04:58;102008.56;;;3.02;100.00
20630;BME280;17386;43.846;25.950;2023-01-26T09:07:24;102018.97;;;2.97;100.00
20630;BME280;17386;43.846;25.950;2023-01-26T09:09:51;102014.59;;;2.98;100.00
20630;BME280;17386;43.846;25.950;2023-01-26T09:12:17;102011.88;;;2.92;100.00
20630;BME280;17386;43.846;25.950;2023-01-26T09:14:42;102011.19;;;3.04;100.00
20630;BME280;17386;43.846;25.950;2023-01-26T09:17:09;102007.63;;;3.01;100.00
20630;BME280;17386;43.846;25.950;2023-01-26T09:19:34;102003.22;;;2.99;100.00
20630;BME280;17386;43.846;25.950;2023-01-26T09:22:01;102005.00;;;3.01;100.00
20630;BME280;17386;43.846;25.950;2023-01-26T09:24:26;101998.00;;;2.99;100.00
20630;BME280;17386;43.846;25.950;2023-01-26T09:26:53;101990.19;;;3.02;100.00
20630;BME280;17386;43.846;25.950;2023-01-26T09:29:18;101988.56;;;3.13;100.00
20630;BME280;17386;43.846;25.950;2023-01-26T09:31:46;101980.00;;;3.25;100.00
20630;BME280;17386;43.846;25.950;2023-01-26T09:34:12;101988.56;;;3.13;100.00
20630;BME280;17386;43.846;25.950;2023-01-26T09:36:39;101986.69;;;3.05;100.00
20630;BME280;17386;43.846;25.950;2023-01-26T09:39:04;101967.34;;;2.96;100.00
20630;BME280;17386;43.846;25.950;2023-01-26T09:41:55;101951.53;;;2.95;100.00
20630;BME280;17386;43.846;25.950;2023-01-26T09:44:30;101965.63;;;3.00;100.00
20630;BME280;17386;43.846;25.950;2023-01-26T09:47:14;101946.56;;;3.15;100.00
20630;BME280;17386;43.846;25.950;2023-01-26T09:55:02;101934.06;;;2.95;100.00
20630;BME280;17386;43.846;25.950;2023-01-26T09:57:40;101931.56;;;3.03;100.00
20630;BME280;17386;43.846;25.950;2023-01-26T10:02:55;101922.34;;;3.34;100.00
20630;BME280;17386;43.846;25.950;2023-01-26T10:05:32;101911.09;;;3.44;100.00
20630;BME280;17386;43.846;25.950;2023-01-26T10:08:01;101916.44;;;3.52;100.00
20630;BME280;17386;43.846;25.950;2023-01-26T10:10:34;101925.91;;;3.39;100.00
20630;BME280;17386;43.846;25.950;2023-01-26T10:13:00;101911.09;;;3.44;100.00
20630;BME280;17386;43.846;25.950;2023-01-26T10:15:31;101914.59;;;3.43;100.00
20630;BME280;17386;43.846;25.950;2023-01-26T10:18:05;101909.13;;;3.28;100.00
20630;BME280;17386;43.846;25.950;2023-01-26T10:20:34;101898.81;;;3.43;100.00
20630;BME280;17386;43.846;25.950;2023-01-26T10:26:16;101907.66;;;3.51;100.00
20630;BME280;17386;43.846;25.950;2023-01-26T10:28:43;101898.91;;;3.51;100.00
20630;BME280;17386;43.846;25.950;2023-01-26T10:31:18;101889.44;;;3.65;100.00
20630;BME280;17386;43.846;25.950;2023-01-26T10:33:51;101889.44;;;3.65;100.00
20630;BME280;17386;43.846;25.950;2023-01-26T10:36:18;101883.97;;;3.50;100.00
20630;BME280;17386;43.846;25.950;2023-01-26T10:38:44;101884.91;;;3.52;100.00
20630;BME280;17386;43.846;25.950;2023-01-26T10:43:49;101871.72;;;3.49;100.00
20630;BME280;17386;43.846;25.950;2023-01-26T10:46:30;101863.97;;;3.60;100.00
20630;BME280;17386;43.846;25.950;2023-01-26T10:51:37;101845.66;;;3.67;100.00
20630;BME280;17386;43.846;25.950;2023-01-26T10:54:22;101849.88;;;3.51;100.00
20630;BME280;17386;43.846;25.950;2023-01-26T10:57:02;101849.72;;;3.39;100.00
20630;BME280;17386;43.846;25.950;2023-01-26T10:59:33;101848.16;;;3.56;100.00
20630;BME280;17386;43.846;25.950;2023-01-26T11:04:36;101830.59;;;3.52;100.00
20630;BME280;17386;43.846;25.950;2023-01-26T11:07:41;101823.75;;;3.67;100.00
20630;BME280;17386;43.846;25.950;2023-01-26T11:10:26;101825.41;;;3.57;100.00
20630;BME280;17386;43.846;25.950;2023-01-26T11:15:38;101803.66;;;3.73;100.00
20630;BME280;17386;43.846;25.950;2023-01-26T11:23:40;101780.91;;;3.77;100.00
20630;BME280;17386;43.846;25.950;2023-01-26T11:26:19;101771.25;;;3.76;100.00
20630;BME280;17386;43.846;25.950;2023-01-26T11:40:23;101772.13;;;3.76;100.00
20630;BME280;17386;43.846;25.950;2023-01-26T11:51:27;101753.72;;;3.75;100.00
20630;BME280;17386;43.846;25.950;2023-01-26T11:54:11;101748.44;;;3.70;100.00
20630;BME280;17386;43.846;25.950;2023-01-26T11:57:05;101741.41;;;3.65;100.00
20630;BME280;17386;43.846;25.950;2023-01-26T11:59:41;101732.75;;;3.78;100.00
20630;BME280;17386;43.846;25.950;2023-01-26T12:02:41;101733.63;;;3.83;100.00
20630;BME280;17386;43.846;25.950;2023-01-26T12:05:19;101718.69;;;3.77;100.00
20630;BME280;17386;43.846;25.950;2023-01-26T12:07:52;101717.09;;;3.92;100.00
20630;BME280;17386;43.846;25.950;2023-01-26T12:10:34;101715.28;;;3.91;100.00
20630;BME280;17386;43.846;25.950;2023-01-26T12:13:15;101702.19;;;3.92;100.00
20630;BME280;17386;43.846;25.950;2023-01-26T12:15:52;101687.34;;;4.02;100.00
20630;BME280;17386;43.846;25.950;2023-01-26T12:18:23;101686.47;;;4.01;100.00
20630;BME280;17386;43.846;25.950;2023-01-26T12:21:07;101683.88;;;4.06;100.00
20630;BME280;17386;43.846;25.950;2023-01-26T12:23:50;101677.78;;;4.15;100.00
20630;BME280;17386;43.846;25.950;2023-01-26T12:26:22;101676.03;;;4.14;100.00
20630;BME280;17386;43.846;25.950;2023-01-26T12:29:19;101682.16;;;4.16;100.00
20630;BME280;17386;43.846;25.950;2023-01-26T12:31:52;101687.38;;;4.06;100.00
20630;BME280;17386;43.846;25.950;2023-01-26T12:34:27;101676.81;;;3.99;100.00
20630;BME280;17386;43.846;25.950;2023-01-26T12:42:56;101669.66;;;3.78;100.00
20630;BME280;17386;43.846;25.950;2023-01-26T12:45:32;101657.38;;;3.74;100.00
20630;BME280;17386;43.846;25.950;2023-01-26T12:48:19;101654.78;;;3.80;100.00
20630;BME280;17386;43.846;25.950;2023-01-26T12:53:20;101652.16;;;3.81;100.00
20630;BME280;17386;43.846;25.950;2023-01-26T12:58:52;101651.38;;;3.95;100.00
20630;BME280;17386;43.846;25.950;2023-01-26T13:01:24;101644.34;;;3.95;100.00
20630;BME280;17386;43.846;25.950;2023-01-26T13:03:57;101639.13;;;4.00;100.00
20630;BME280;17386;43.846;25.950;2023-01-26T13:06:27;101631.25;;;4.00;100.00
20630;BME280;17386;43.846;25.950;2023-01-26T13:16:49;101617.22;;;4.02;100.00
20630;BME280;17386;43.846;25.950;2023-01-26T13:19:34;101619.81;;;3.96;100.00
20630;BME280;17386;43.846;25.950;2023-01-26T13:22:00;101617.25;;;4.07;100.00
20630;BME280;17386;43.846;25.950;2023-01-26T13:26:57;101622.56;;;4.13;100.00
20630;BME280;17386;43.846;25.950;2023-01-26T13:34:48;101608.56;;;4.19;100.00
20630;BME280;17386;43.846;25.950;2023-01-26T13:37:34;101610.28;;;4.18;100.00
20630;BME280;17386;43.846;25.950;2023-01-26T13:40:12;101612.91;;;4.18;100.00
20630;BME280;17386;43.846;25.950;2023-01-26T13:42:53;101609.44;;;4.22;100.00
20630;BME280;17386;43.846;25.950;2023-01-26T13:45:28;101612.94;;;4.21;100.00
20630;BME280;17386;43.846;25.950;2023-01-26T13:47:57;101605.94;;;4.19;100.00
20630;BME280;17386;43.846;25.950;2023-01-26T13:50:32;101613.88;;;4.34;100.00
20630;BME280;17386;43.846;25.950;2023-01-26T13:52:58;101606.00;;;4.40;100.00
20630;BME280;17386;43.846;25.950;2023-01-26T13:55:27;101598.94;;;4.28;100.00
20630;BME280;17386;43.846;25.950;2023-01-26T13:58:13;101591.91;;;4.32;100.00
20630;BME280;17386;43.846;25.950;2023-01-26T14:00:39;101571.75;;;4.28;100.00
20630;BME280;17386;43.846;25.950;2023-01-26T14:03:04;101588.44;;;4.36;100.00
20630;BME280;17386;43.846;25.950;2023-01-26T14:05:30;101580.53;;;4.39;100.00
20630;BME280;17386;43.846;25.950;2023-01-26T14:07:57;101575.28;;;4.33;100.00
20630;BME280;17386;43.846;25.950;2023-01-26T14:10:23;101574.47;;;4.46;100.00
20630;BME280;17386;43.846;25.950;2023-01-26T14:12:53;101568.28;;;4.43;100.00